createdAt,value
2023-04-06T00:00:39.653Z,12.43
2023-04-06T00:03:09.725Z,16.55
2023-04-06T00:05:38.466Z,14.75
2023-04-06T00:08:07.232Z,18.88
2023-04-06T00:10:35.764Z,16.55
2023-04-06T00:13:04.708Z,14.85
2023-04-06T00:15:33.217Z,14.88
2023-04-06T00:18:02.036Z,17.33
2023-04-06T00:20:31.976Z,17.45
2023-04-06T00:23:00.633Z,13.95
2023-04-06T00:25:29.231Z,14.60
2023-04-06T00:27:58.209Z,15.85
2023-04-06T00:30:26.816Z,13.18
2023-04-06T00:32:55.559Z,15.88
2023-04-06T00:35:24.085Z,14.60
2023-04-06T00:37:54.243Z,15.52
2023-04-06T00:40:22.708Z,13.38
2023-04-06T00:42:51.537Z,12.27
2023-04-06T00:45:20.125Z,12.35
2023-04-06T00:47:48.836Z,14.35
2023-04-06T00:50:17.476Z,15.05
2023-04-06T00:52:46.083Z,12.60
2023-04-06T00:55:16.114Z,15.88
2023-04-06T00:57:45.573Z,15.18
2023-04-06T01:00:15.635Z,12.70
2023-04-06T01:02:47.588Z,15.23
2023-04-06T01:05:19.345Z,16.13
2023-04-06T01:07:57.495Z,10.80
2023-04-06T01:10:31.549Z,12.35
2023-04-06T01:13:08.267Z,11.35
2023-04-06T01:15:50.363Z,12.07
2023-04-06T01:18:28.687Z,12.93
2023-04-06T01:21:09.719Z,12.93
2023-04-06T01:23:39.554Z,13.80
2023-04-06T01:26:07.991Z,13.15
2023-04-06T01:28:38.514Z,12.50
2023-04-06T01:31:15.490Z,15.35
2023-04-06T01:33:48.119Z,12.68
2023-04-06T01:36:20.710Z,10.82
2023-04-06T01:38:56.695Z,13.13
2023-04-06T01:41:32.316Z,14.25
2023-04-06T01:44:00.583Z,14.35
2023-04-06T01:46:31.810Z,13.45
2023-04-06T01:49:01.304Z,12.10
2023-04-06T01:51:41.692Z,13.93
2023-04-06T01:54:15.621Z,13.75
2023-04-06T01:57:07.329Z,15.20
2023-04-06T01:59:42.813Z,14.60
2023-04-06T02:02:26.506Z,13.80
2023-04-06T02:05:02.952Z,12.05
2023-04-06T02:07:31.235Z,16.13
2023-04-06T02:10:01.038Z,12.80
2023-04-06T02:12:37.250Z,12.98
2023-04-06T02:15:08.526Z,22.80
2023-04-06T02:17:37.549Z,17.60
2023-04-06T02:20:07.248Z,16.98
2023-04-06T02:22:35.702Z,17.38
2023-04-06T02:25:09.020Z,17.00
2023-04-06T02:27:37.613Z,13.68
2023-04-06T02:30:06.938Z,14.55
2023-04-06T02:32:35.411Z,15.05
2023-04-06T02:35:03.870Z,14.52
2023-04-06T02:37:34.149Z,18.35
2023-04-06T02:40:02.373Z,14.55
2023-04-06T02:42:34.088Z,14.55
2023-04-06T02:45:02.800Z,11.25
2023-04-06T02:47:35.591Z,15.00
2023-04-06T02:50:04.183Z,13.20
2023-04-06T02:52:34.141Z,11.85
2023-04-06T02:55:02.830Z,12.15
2023-04-06T02:57:34.127Z,14.70
2023-04-06T03:00:02.375Z,17.77
2023-04-06T03:02:38.912Z,14.00
2023-04-06T03:05:11.751Z,14.60
2023-04-06T03:07:43.856Z,13.68
2023-04-06T03:10:19.422Z,16.90
2023-04-06T03:12:51.039Z,15.02
2023-04-06T03:15:23.776Z,14.55
2023-04-06T03:17:59.605Z,18.10
2023-04-06T03:20:39.979Z,13.48
2023-04-06T03:23:08.712Z,14.80
2023-04-06T03:25:41.702Z,16.42
2023-04-06T03:28:14.579Z,16.20
2023-04-06T03:30:51.441Z,13.40
2023-04-06T03:33:28.096Z,11.52
2023-04-06T03:35:57.632Z,15.38
2023-04-06T03:38:28.167Z,17.83
2023-04-06T03:40:57.172Z,11.98
2023-04-06T03:43:30.290Z,14.82
2023-04-06T03:45:58.835Z,15.50
2023-04-06T03:48:27.960Z,15.27
2023-04-06T03:50:56.519Z,12.68
2023-04-06T03:53:25.146Z,12.60
2023-04-06T03:55:53.508Z,14.98
2023-04-06T03:58:23.007Z,16.05
2023-04-06T04:00:53.091Z,12.23
2023-04-06T04:03:24.707Z,15.00
2023-04-06T04:05:53.410Z,16.17
2023-04-06T04:08:22.111Z,16.33
2023-04-06T04:10:50.732Z,17.83
2023-04-06T04:13:19.688Z,14.27
2023-04-06T04:15:52.362Z,13.45
2023-04-06T04:18:20.937Z,17.50
2023-04-06T04:20:49.558Z,15.18
2023-04-06T04:23:18.133Z,16.08
2023-04-06T04:25:46.822Z,13.80
2023-04-06T04:28:15.081Z,13.95
2023-04-06T04:30:45.546Z,18.83
2023-04-06T04:33:15.941Z,14.10
2023-04-06T04:35:45.118Z,12.65
2023-04-06T04:38:17.547Z,16.88
2023-04-06T04:40:50.818Z,12.32
2023-04-06T04:43:19.312Z,15.93
2023-04-06T04:45:48.209Z,13.30
2023-04-06T04:48:35.169Z,13.30
2023-04-06T04:51:07.098Z,12.05
2023-04-06T04:53:55.991Z,12.75
2023-04-06T04:56:31.295Z,16.38
2023-04-06T04:59:09.441Z,12.40
2023-04-06T05:01:54.474Z,14.43
2023-04-06T05:04:27.944Z,14.50
2023-04-06T05:07:07.403Z,15.82
2023-04-06T05:09:37.774Z,14.32
2023-04-06T05:12:07.180Z,13.18
2023-04-06T05:14:42.690Z,14.35
2023-04-06T05:17:16.366Z,15.98
2023-04-06T05:19:46.875Z,15.23
2023-04-06T05:22:18.745Z,16.25
2023-04-06T05:24:52.893Z,14.05
2023-04-06T05:27:21.589Z,17.33
2023-04-06T05:29:51.548Z,16.40
2023-04-06T05:32:23.133Z,14.45
2023-04-06T05:34:54.437Z,15.52
2023-04-06T05:37:23.652Z,14.30
2023-04-06T05:39:52.111Z,15.25
2023-04-06T05:42:21.296Z,16.25
2023-04-06T05:44:54.349Z,14.70
2023-04-06T05:47:22.959Z,12.02
2023-04-06T05:50:00.213Z,14.27
2023-04-06T05:52:35.795Z,13.55
2023-04-06T05:55:04.581Z,16.98
2023-04-06T05:57:33.864Z,15.77
2023-04-06T06:00:04.702Z,16.20
2023-04-06T06:02:47.814Z,11.65
2023-04-06T06:05:22.628Z,19.02
2023-04-06T06:07:52.370Z,15.90
2023-04-06T06:10:20.895Z,17.85
2023-04-06T06:12:49.507Z,13.77
2023-04-06T06:15:19.008Z,17.52
2023-04-06T06:17:49.865Z,12.52
2023-04-06T06:20:19.469Z,11.75
2023-04-06T06:22:51.021Z,11.38
2023-04-06T06:25:22.891Z,13.90
2023-04-06T06:27:52.376Z,14.27
2023-04-06T06:30:23.434Z,12.85
2023-04-06T06:32:53.193Z,13.25
2023-04-06T06:35:21.736Z,13.02
2023-04-06T06:37:52.179Z,13.70
2023-04-06T06:40:25.449Z,16.00
2023-04-06T06:42:55.930Z,11.00
2023-04-06T06:45:37.185Z,13.65
2023-04-06T06:48:31.767Z,15.23
2023-04-06T06:51:00.467Z,14.90
2023-04-06T06:53:30.743Z,14.73
2023-04-06T06:55:59.328Z,12.40
2023-04-06T06:58:28.532Z,11.43
2023-04-06T07:00:59.271Z,15.88
2023-04-06T07:03:29.185Z,14.23
2023-04-06T07:05:57.955Z,16.35
2023-04-06T07:08:27.424Z,11.50
2023-04-06T07:10:58.247Z,15.05
2023-04-06T07:13:28.465Z,12.35
2023-04-06T07:15:59.772Z,12.13
2023-04-06T07:18:29.682Z,11.07
2023-04-06T07:20:58.249Z,11.30
2023-04-06T07:23:27.412Z,12.35
2023-04-06T07:25:57.232Z,10.80
2023-04-06T07:28:25.889Z,13.35
2023-04-06T07:30:56.394Z,9.52
2023-04-06T07:33:25.264Z,13.85
2023-04-06T07:35:53.932Z,9.02
2023-04-06T07:38:22.624Z,14.27
2023-04-06T07:40:55.250Z,9.25
2023-04-06T07:43:26.493Z,9.07
2023-04-06T07:45:56.064Z,8.88
2023-04-06T07:48:24.557Z,8.40
2023-04-06T07:50:53.332Z,9.85
2023-04-06T07:53:21.994Z,9.13
2023-04-06T07:55:52.617Z,8.52
2023-04-06T07:58:24.045Z,10.07
2023-04-06T08:00:57.027Z,8.45
2023-04-06T08:03:28.656Z,9.50
2023-04-06T08:06:01.185Z,9.57
2023-04-06T08:08:32.369Z,9.23
2023-04-06T08:11:04.646Z,9.57
2023-04-06T08:13:36.037Z,8.25
2023-04-06T08:16:10.243Z,9.55
2023-04-06T08:18:41.206Z,8.77
2023-04-06T08:21:12.778Z,8.05
2023-04-06T08:23:44.643Z,8.85
2023-04-06T08:26:16.381Z,8.63
2023-04-06T08:28:47.272Z,8.77
2023-04-06T08:31:20.452Z,11.65
2023-04-06T08:33:52.057Z,12.65
2023-04-06T08:36:24.724Z,8.35
2023-04-06T08:38:55.676Z,8.45
2023-04-06T08:41:27.906Z,9.82
2023-04-06T08:44:03.127Z,8.18
2023-04-06T08:46:36.223Z,9.73
2023-04-06T08:49:08.783Z,10.77
2023-04-06T08:51:41.272Z,9.13
2023-04-06T08:54:12.614Z,9.18
2023-04-06T08:56:44.595Z,10.05
2023-04-06T08:59:16.657Z,10.38
2023-04-06T09:01:50.553Z,10.82
2023-04-06T09:04:22.295Z,8.95
2023-04-06T09:06:54.069Z,9.40
2023-04-06T09:09:27.168Z,9.38
2023-04-06T09:12:03.602Z,10.85
2023-04-06T09:14:40.808Z,10.00
2023-04-06T09:17:24.920Z,10.48
2023-04-06T09:19:57.294Z,11.75
2023-04-06T09:22:30.229Z,10.32
2023-04-06T09:25:01.777Z,11.38
2023-04-06T09:27:37.409Z,14.52
2023-04-06T09:30:11.802Z,10.60
2023-04-06T09:32:57.689Z,10.27
2023-04-06T09:35:31.741Z,10.95
2023-04-06T09:38:14.287Z,9.95
2023-04-06T09:41:01.227Z,10.25
2023-04-06T09:43:32.975Z,12.15
2023-04-06T09:46:06.178Z,11.57
2023-04-06T09:48:40.870Z,10.18
2023-04-06T09:51:15.364Z,14.52
2023-04-06T09:53:53.669Z,12.70
2023-04-06T09:56:31.784Z,12.38
2023-04-06T09:59:12.733Z,10.32
2023-04-06T10:01:45.200Z,9.55
2023-04-06T10:04:30.093Z,12.88
2023-04-06T10:07:02.958Z,10.23
2023-04-06T10:09:38.001Z,9.73
2023-04-06T10:12:09.681Z,9.88
2023-04-06T10:14:43.065Z,11.10
2023-04-06T10:17:15.597Z,12.38
2023-04-06T10:19:55.944Z,12.32
2023-04-06T10:22:35.378Z,9.80
2023-04-06T10:25:07.904Z,14.98
2023-04-06T10:27:39.864Z,12.77
2023-04-06T10:30:11.953Z,12.25
2023-04-06T10:32:44.786Z,13.13
2023-04-06T10:35:20.176Z,15.23
2023-04-06T10:37:56.895Z,13.23
2023-04-06T10:40:29.433Z,10.25
2023-04-06T10:43:11.547Z,12.23
2023-04-06T10:45:42.882Z,12.40
2023-04-06T10:48:17.203Z,14.40
2023-04-06T10:50:53.407Z,13.88
2023-04-06T10:53:25.835Z,13.13
2023-04-06T10:55:59.538Z,12.40
2023-04-06T10:58:30.436Z,11.77
2023-04-06T11:01:01.385Z,11.55
2023-04-06T11:03:34.080Z,12.85
2023-04-06T11:06:07.958Z,10.68
2023-04-06T11:08:42.225Z,12.32
2023-04-06T11:11:17.191Z,12.68
2023-04-06T11:13:50.816Z,12.77
2023-04-06T11:16:22.615Z,13.88
2023-04-06T11:18:54.218Z,11.02
2023-04-06T11:21:38.270Z,10.57
2023-04-06T11:24:14.448Z,10.55
2023-04-06T11:26:47.589Z,9.82
2023-04-06T11:29:20.204Z,11.18
2023-04-06T11:31:52.026Z,11.65
2023-04-06T11:34:24.693Z,13.63
2023-04-06T11:37:03.394Z,8.82
2023-04-06T11:39:34.052Z,10.07
2023-04-06T11:42:08.994Z,8.30
2023-04-06T11:44:42.482Z,8.35
2023-04-06T11:47:14.396Z,10.15
2023-04-06T11:49:47.488Z,9.45
2023-04-06T11:52:21.831Z,10.73
2023-04-06T11:54:54.511Z,8.40
2023-04-06T11:57:27.149Z,10.25
2023-04-06T11:59:58.978Z,9.23
2023-04-06T12:02:31.494Z,9.55
2023-04-06T12:05:01.699Z,10.10
2023-04-06T12:07:34.976Z,10.68
2023-04-06T12:10:08.189Z,7.43
2023-04-06T12:12:39.773Z,8.82
2023-04-06T12:15:12.111Z,7.90
2023-04-06T12:17:43.377Z,7.03
2023-04-06T12:20:25.218Z,10.10
2023-04-06T12:22:57.583Z,8.25
2023-04-06T12:25:31.060Z,11.32
2023-04-06T12:28:01.838Z,8.85
2023-04-06T12:30:34.065Z,9.40
2023-04-06T12:33:05.373Z,9.73
2023-04-06T12:35:38.917Z,9.82
2023-04-06T12:38:11.800Z,9.55
2023-04-06T12:40:43.557Z,8.90
2023-04-06T12:43:15.130Z,7.95
2023-04-06T12:45:44.123Z,8.63
2023-04-06T12:48:12.518Z,9.05
2023-04-06T12:50:41.472Z,7.95
2023-04-06T12:53:11.563Z,9.07
2023-04-06T12:55:40.070Z,7.78
2023-04-06T12:58:08.531Z,10.13
2023-04-06T13:00:36.943Z,7.10
2023-04-06T13:03:05.384Z,8.93
2023-04-06T13:05:33.812Z,8.18
2023-04-06T13:08:02.184Z,9.23
2023-04-06T13:10:34.005Z,8.55
2023-04-06T13:13:03.340Z,9.18
2023-04-06T13:15:37.644Z,8.10
2023-04-06T13:18:07.202Z,11.38
2023-04-06T13:20:37.416Z,8.60
2023-04-06T13:23:07.297Z,10.07
2023-04-06T13:25:37.953Z,7.93
2023-04-06T13:28:07.782Z,8.27
2023-04-06T13:30:37.403Z,8.32
2023-04-06T13:33:08.297Z,9.23
2023-04-06T13:35:37.963Z,8.60
2023-04-06T13:38:07.794Z,12.55
2023-04-06T13:40:41.451Z,12.82
2023-04-06T13:43:11.104Z,12.52
2023-04-06T13:45:40.651Z,14.57
2023-04-06T13:48:09.374Z,12.55
2023-04-06T13:50:38.519Z,9.52
2023-04-06T13:53:08.148Z,11.77
2023-04-06T13:55:38.732Z,12.70
2023-04-06T13:58:08.356Z,12.25
2023-04-06T14:00:38.192Z,10.65
2023-04-06T14:03:06.886Z,9.95
2023-04-06T14:05:36.569Z,12.45
2023-04-06T14:08:06.576Z,10.48
2023-04-06T14:10:41.646Z,10.95
2023-04-06T14:13:10.567Z,12.50
2023-04-06T14:15:40.076Z,12.63
2023-04-06T14:18:10.658Z,14.57
2023-04-06T14:20:39.035Z,15.48
2023-04-06T14:23:07.856Z,11.95
2023-04-06T14:25:36.343Z,11.13
2023-04-06T14:28:06.192Z,13.77
2023-04-06T14:30:34.798Z,10.00
2023-04-06T14:33:03.255Z,13.85
2023-04-06T14:35:33.591Z,12.25
2023-04-06T14:38:02.600Z,15.18
2023-04-06T14:40:31.054Z,12.90
2023-04-06T14:42:59.291Z,12.55
2023-04-06T14:45:28.922Z,15.52
2023-04-06T14:47:57.177Z,16.23
2023-04-06T14:50:25.471Z,13.70
2023-04-06T14:52:53.792Z,13.75
2023-04-06T14:55:22.081Z,11.20
2023-04-06T14:57:50.427Z,11.75
2023-04-06T15:00:19.428Z,15.88
2023-04-06T15:02:49.445Z,11.77
2023-04-06T15:05:18.050Z,13.10
2023-04-06T15:07:46.464Z,10.65
2023-04-06T15:10:14.921Z,11.30
2023-04-06T15:12:43.076Z,12.90
2023-04-06T15:15:11.998Z,12.57
2023-04-06T15:17:40.157Z,13.30
2023-04-06T15:20:10.284Z,13.23
2023-04-06T15:22:38.417Z,11.45
2023-04-06T15:25:07.286Z,12.48
2023-04-06T15:27:35.873Z,16.58
2023-04-06T15:30:04.183Z,12.05
2023-04-06T15:32:32.694Z,12.23
2023-04-06T15:35:01.395Z,14.98
2023-04-06T15:37:31.236Z,12.13
2023-04-06T15:40:00.308Z,12.20
2023-04-06T15:42:29.641Z,11.10
2023-04-06T15:44:59.562Z,11.07
2023-04-06T15:47:27.710Z,9.52
2023-04-06T15:49:55.786Z,10.90
2023-04-06T15:52:24.991Z,10.25
2023-04-06T15:54:56.706Z,10.65
2023-04-06T15:57:27.318Z,17.70
2023-04-06T15:59:56.509Z,9.32
2023-04-06T16:02:25.434Z,10.23
2023-04-06T16:05:00.203Z,12.77
2023-04-06T16:07:28.294Z,9.18
2023-04-06T16:09:57.785Z,11.88
2023-04-06T16:12:27.705Z,11.18
2023-04-06T16:14:57.169Z,12.25
2023-04-06T16:17:25.252Z,11.18
2023-04-06T16:19:53.304Z,11.70
2023-04-06T16:22:21.721Z,11.52
2023-04-06T16:24:49.926Z,9.15
2023-04-06T16:27:19.282Z,10.80
2023-04-06T16:29:47.512Z,8.98
2023-04-06T16:32:15.575Z,9.85
2023-04-06T16:34:43.776Z,11.20
2023-04-06T16:37:11.973Z,11.30
2023-04-06T16:39:40.389Z,17.42
2023-04-06T16:42:08.625Z,9.65
2023-04-06T16:44:38.252Z,7.03
2023-04-06T16:47:07.070Z,7.30
2023-04-06T16:49:35.350Z,8.93
2023-04-06T16:52:05.959Z,9.07
2023-04-06T16:54:34.849Z,8.90
2023-04-06T16:57:06.455Z,10.35
2023-04-06T16:59:36.014Z,7.75
2023-04-06T17:02:05.753Z,8.98
2023-04-06T17:04:33.856Z,10.23
2023-04-06T17:07:01.936Z,9.30
2023-04-06T17:11:59.780Z,11.32
2023-04-06T17:14:27.974Z,9.75
2023-04-06T17:16:56.957Z,7.85
2023-04-06T17:19:27.057Z,7.18
2023-04-06T17:21:55.318Z,11.48
2023-04-06T17:24:23.464Z,9.68
2023-04-06T17:26:51.664Z,9.10
2023-04-06T17:29:20.016Z,8.60
2023-04-06T17:31:48.329Z,12.18
2023-04-06T17:34:16.611Z,10.18
2023-04-06T17:36:46.557Z,11.77
2023-04-06T17:39:14.673Z,9.52
2023-04-06T17:41:43.084Z,11.32
2023-04-06T17:44:13.196Z,10.80
2023-04-06T17:46:53.552Z,7.80
2023-04-06T17:49:25.438Z,9.93
2023-04-06T17:51:55.355Z,10.85
2023-04-06T17:54:23.810Z,11.13
2023-04-06T17:56:53.411Z,9.00
2023-04-06T17:59:21.538Z,9.48
2023-04-06T18:01:49.835Z,8.25
2023-04-06T18:04:18.173Z,9.27
2023-04-06T18:06:46.632Z,9.07
2023-04-06T18:09:16.186Z,9.65
2023-04-06T18:12:00.473Z,8.93
2023-04-06T18:14:28.841Z,7.00
2023-04-06T18:16:56.906Z,9.38
2023-04-06T18:19:24.888Z,11.35
2023-04-06T18:21:53.127Z,15.20
2023-04-06T18:24:32.027Z,11.50
2023-04-06T18:27:00.817Z,9.27
2023-04-06T18:29:29.055Z,7.53
2023-04-06T18:31:57.206Z,10.10
2023-04-06T18:34:28.146Z,11.60
2023-04-06T18:36:57.562Z,12.05
2023-04-06T18:39:27.707Z,9.50
2023-04-06T18:41:55.994Z,8.38
2023-04-06T18:44:24.202Z,6.82
2023-04-06T18:46:55.216Z,6.53
2023-04-06T18:49:25.494Z,5.65
2023-04-06T18:52:03.847Z,7.70
2023-04-06T18:54:44.188Z,6.50
2023-04-06T18:57:22.669Z,6.68
2023-04-06T18:59:58.431Z,5.40
2023-04-06T19:02:37.038Z,3.78
2023-04-06T19:05:08.762Z,4.45
2023-04-06T19:07:45.865Z,4.60
2023-04-06T19:10:21.893Z,4.10
2023-04-06T19:12:53.327Z,5.00
2023-04-06T19:15:25.885Z,4.38
2023-04-06T19:17:56.691Z,3.60
2023-04-06T19:20:26.108Z,4.05
2023-04-06T19:22:58.254Z,4.70
2023-04-06T19:25:30.871Z,4.63
2023-04-06T19:28:00.647Z,3.90
2023-04-06T19:30:34.667Z,4.82
2023-04-06T19:33:10.268Z,4.90
2023-04-06T19:35:47.055Z,6.13
2023-04-06T19:38:25.342Z,4.97
2023-04-06T19:40:57.604Z,5.68
2023-04-06T19:43:26.249Z,4.93
2023-04-06T19:45:55.118Z,4.70
2023-04-06T19:48:27.070Z,4.13
2023-04-06T19:50:59.196Z,5.55
2023-04-06T19:53:29.219Z,5.32
2023-04-06T19:56:04.954Z,5.97
2023-04-06T19:58:36.099Z,7.03
2023-04-06T20:01:08.063Z,7.80
2023-04-06T20:03:39.475Z,6.60
2023-04-06T20:06:08.615Z,8.68
2023-04-06T20:08:36.746Z,7.50
2023-04-06T20:11:07.667Z,8.98
2023-04-06T20:13:36.269Z,7.90
2023-04-06T20:16:04.847Z,7.32
2023-04-06T20:18:33.221Z,8.15
2023-04-06T20:21:01.395Z,10.00
2023-04-06T20:23:29.597Z,9.43
2023-04-06T20:25:57.837Z,10.77
2023-04-06T20:28:58.906Z,8.15
2023-04-06T20:31:29.419Z,7.70
2023-04-06T20:33:57.921Z,8.02
2023-04-06T20:36:28.301Z,7.55
2023-04-06T20:38:56.762Z,9.85
2023-04-06T20:41:25.595Z,7.05
2023-04-06T20:43:54.152Z,8.18
2023-04-06T20:46:22.793Z,10.32
2023-04-06T20:48:54.453Z,7.68
2023-04-06T20:51:24.841Z,10.10
2023-04-06T20:53:54.025Z,9.45
2023-04-06T20:56:23.269Z,11.73
2023-04-06T20:58:52.382Z,9.05
2023-04-06T21:01:21.354Z,9.45
2023-04-06T21:03:49.847Z,8.32
2023-04-06T21:06:20.159Z,9.65
2023-04-06T21:08:48.860Z,8.57
2023-04-06T21:11:17.882Z,8.43
2023-04-06T21:13:46.395Z,11.05
2023-04-06T21:16:15.132Z,15.13
2023-04-06T21:18:44.011Z,11.82
2023-04-06T21:21:12.906Z,11.73
2023-04-06T21:23:42.783Z,13.05
2023-04-06T21:26:13.929Z,12.02
2023-04-06T21:28:42.582Z,14.85
2023-04-06T21:31:10.920Z,17.45
2023-04-06T21:33:39.680Z,14.52
2023-04-06T21:36:08.858Z,18.27
2023-04-06T21:38:37.578Z,16.67
2023-04-06T21:41:07.839Z,19.65
2023-04-06T21:43:36.874Z,17.85
2023-04-06T21:46:05.463Z,14.40
2023-04-06T21:48:34.113Z,16.70
2023-04-06T21:51:02.616Z,16.65
2023-04-06T21:53:31.188Z,20.00
2023-04-06T21:56:01.146Z,16.73
2023-04-06T21:58:30.898Z,14.10
2023-04-06T22:01:01.506Z,13.25
2023-04-06T22:03:30.638Z,20.10
2023-04-06T22:05:59.430Z,17.60
2023-04-06T22:08:33.722Z,17.25
2023-04-06T22:11:09.184Z,19.63
2023-04-06T22:13:39.555Z,16.80
2023-04-06T22:16:09.200Z,19.70
2023-04-06T22:18:39.111Z,17.67
2023-04-06T22:21:08.345Z,17.27
2023-04-06T22:23:42.222Z,16.95
2023-04-06T22:26:11.135Z,18.80
2023-04-06T22:28:41.288Z,16.70
2023-04-06T22:31:10.251Z,21.40
2023-04-06T22:33:38.660Z,22.20
2023-04-06T22:36:07.558Z,20.85
2023-04-06T22:38:36.135Z,25.65
2023-04-06T22:41:05.652Z,19.88
2023-04-06T22:43:35.650Z,20.80
2023-04-06T22:46:05.630Z,22.55
2023-04-06T22:48:33.976Z,20.85
2023-04-06T22:51:02.184Z,18.35
2023-04-06T22:53:30.571Z,17.27
2023-04-06T22:55:58.926Z,24.95
2023-04-06T22:58:27.082Z,23.67
2023-04-06T23:00:55.507Z,18.98
2023-04-06T23:03:25.464Z,18.15
2023-04-06T23:05:53.889Z,17.15
2023-04-06T23:08:22.154Z,18.00
2023-04-06T23:10:51.451Z,17.13
2023-04-06T23:13:19.948Z,20.48
2023-04-06T23:15:50.630Z,20.75
2023-04-06T23:18:19.080Z,18.13
2023-04-06T23:20:48.811Z,20.55
2023-04-06T23:23:17.275Z,18.27
2023-04-06T23:25:45.647Z,20.33
2023-04-06T23:28:13.890Z,19.40
2023-04-06T23:30:44.999Z,20.75
2023-04-06T23:33:13.493Z,17.45
2023-04-06T23:35:41.653Z,17.85
2023-04-06T23:38:11.192Z,16.55
2023-04-06T23:40:39.531Z,16.45
2023-04-06T23:43:07.811Z,25.15
2023-04-06T23:45:36.197Z,14.25
2023-04-06T23:48:04.579Z,14.90
2023-04-06T23:50:32.999Z,20.85
2023-04-06T23:53:01.160Z,13.80
2023-04-06T23:55:31.751Z,16.88
2023-04-06T23:58:00.342Z,16.77
